createdAt,value
2023-01-18T00:01:19.304Z,93385.63
2023-01-18T00:03:48.169Z,93393.28
2023-01-18T00:06:18.014Z,93389.88
2023-01-18T00:08:46.406Z,93395.69
2023-01-18T00:11:18.480Z,93387.69
2023-01-18T00:13:47.508Z,93387.69
2023-01-18T00:16:19.643Z,93388.66
2023-01-18T00:18:52.354Z,93386.06
2023-01-18T00:21:20.762Z,93380.81
2023-01-18T00:23:49.143Z,93380.03
2023-01-18T00:26:18.021Z,93386.06
2023-01-18T00:28:46.987Z,93383.44
2023-01-18T00:31:18.222Z,93376.63
2023-01-18T00:33:48.159Z,93373.00
2023-01-18T00:36:17.154Z,93373.19
2023-01-18T00:38:51.660Z,93368.97
2023-01-18T00:41:20.492Z,93372.38
2023-01-18T00:43:48.097Z,93369.78
2023-01-18T00:46:19.981Z,93372.38
2023-01-18T00:48:48.494Z,93367.16
2023-01-18T00:51:18.766Z,93373.00
2023-01-18T00:53:47.448Z,93362.56
2023-01-18T00:56:18.549Z,93370.56
2023-01-18T00:58:47.246Z,93365.34
2023-01-18T01:01:17.398Z,93368.78
2023-01-18T01:04:03.362Z,93373.19
2023-01-18T01:06:46.263Z,93370.97
2023-01-18T01:09:17.491Z,93374.38
2023-01-18T01:12:06.287Z,93381.19
2023-01-18T01:14:54.063Z,93376.81
2023-01-18T01:17:41.861Z,93378.59
2023-01-18T01:20:29.287Z,93382.03
2023-01-18T01:23:14.809Z,93375.78
2023-01-18T01:26:01.808Z,93383.44
2023-01-18T01:28:30.131Z,93388.47
2023-01-18T01:31:00.412Z,93389.09
2023-01-18T01:33:31.442Z,93393.50
2023-01-18T01:36:01.226Z,93391.88
2023-01-18T01:38:30.314Z,93393.88
2023-01-18T01:41:00.607Z,93397.69
2023-01-18T01:43:44.526Z,93399.47
2023-01-18T01:46:25.809Z,93402.31
2023-01-18T01:49:01.780Z,93400.88
2023-01-18T01:51:30.425Z,93411.31
2023-01-18T01:54:03.056Z,93412.31
2023-01-18T01:56:32.214Z,93418.34
2023-01-18T01:59:03.896Z,93419.53
2023-01-18T02:01:32.552Z,93415.31
2023-01-18T02:04:03.637Z,93407.47
2023-01-18T02:06:35.781Z,93415.31
2023-01-18T02:09:06.975Z,93410.09
2023-01-18T02:11:36.027Z,93408.28
2023-01-18T02:14:07.453Z,93420.53
2023-01-18T02:16:48.465Z,93421.13
2023-01-18T02:19:46.133Z,93418.34
2023-01-18T02:22:30.841Z,93424.16
2023-01-18T02:25:24.474Z,93423.38
2023-01-18T02:28:06.932Z,93424.16
2023-01-18T02:30:39.660Z,93419.97
2023-01-18T02:33:11.819Z,93432.41
2023-01-18T02:35:50.339Z,93433.38
2023-01-18T02:38:24.972Z,93434.38
2023-01-18T02:41:09.797Z,93433.75
2023-01-18T02:44:00.011Z,93435.97
2023-01-18T02:46:38.828Z,93432.75
2023-01-18T02:49:10.217Z,93433.13
2023-01-18T02:51:39.654Z,93440.94
2023-01-18T02:54:10.537Z,93444.16
2023-01-18T02:56:42.815Z,93449.31
2023-01-18T02:59:17.972Z,93451.47
2023-01-18T03:01:49.923Z,93449.69
2023-01-18T03:04:23.601Z,93455.31
2023-01-18T03:06:58.698Z,93453.53
2023-01-18T03:09:28.667Z,93452.53
2023-01-18T03:12:02.450Z,93456.16
2023-01-18T03:14:40.477Z,93452.94
2023-01-18T03:17:14.963Z,93458.50
2023-01-18T03:20:07.153Z,93457.28
2023-01-18T03:22:56.352Z,93460.69
2023-01-18T03:25:28.974Z,93463.31
2023-01-18T03:28:17.579Z,93464.09
2023-01-18T03:31:06.841Z,93467.53
2023-01-18T03:33:43.787Z,93472.94
2023-01-18T03:36:17.772Z,93464.84
2023-01-18T03:38:50.002Z,93464.25
2023-01-18T03:41:20.332Z,93466.25
2023-01-18T03:43:51.523Z,93469.84
2023-01-18T03:46:24.669Z,93459.41
2023-01-18T03:49:01.018Z,93479.28
2023-01-18T03:51:41.818Z,93481.41
2023-01-18T03:54:16.382Z,93465.66
2023-01-18T03:56:51.749Z,93485.13
2023-01-18T03:59:21.797Z,93475.94
2023-01-18T04:01:51.697Z,93481.97
2023-01-18T04:04:20.083Z,93484.78
2023-01-18T04:06:48.506Z,93485.56
2023-01-18T04:09:16.997Z,93479.00
2023-01-18T04:11:45.344Z,93484.03
2023-01-18T04:14:13.715Z,93483.00
2023-01-18T04:16:42.105Z,93479.16
2023-01-18T04:19:11.851Z,93485.22
2023-01-18T04:21:40.174Z,93488.00
2023-01-18T04:24:08.963Z,93490.19
2023-01-18T04:26:37.271Z,93492.16
2023-01-18T04:29:06.839Z,93495.94
2023-01-18T04:31:35.204Z,93491.72
2023-01-18T04:34:03.589Z,93495.56
2023-01-18T04:36:33.351Z,93491.78
2023-01-18T04:39:01.698Z,93498.44
2023-01-18T04:41:30.236Z,93493.84
2023-01-18T04:43:58.536Z,93500.03
2023-01-18T04:46:27.056Z,93501.66
2023-01-18T04:48:55.403Z,93496.63
2023-01-18T04:51:24.820Z,93499.06
2023-01-18T04:53:54.943Z,93506.69
2023-01-18T04:56:23.257Z,93505.88
2023-01-18T04:58:54.536Z,93508.13
2023-01-18T05:01:23.819Z,93507.31
2023-01-18T05:03:53.571Z,93517.31
2023-01-18T05:06:22.084Z,93511.66
2023-01-18T05:08:51.000Z,93521.72
2023-01-18T05:11:23.207Z,93517.31
2023-01-18T05:13:51.753Z,93512.91
2023-01-18T05:16:22.470Z,93517.31
2023-01-18T05:18:51.431Z,93520.72
2023-01-18T05:21:20.252Z,93520.53
2023-01-18T05:23:48.654Z,93525.75
2023-01-18T05:26:19.000Z,93512.72
2023-01-18T05:28:50.155Z,93522.97
2023-01-18T05:31:21.274Z,93525.56
2023-01-18T05:33:50.072Z,93525.38
2023-01-18T05:36:18.876Z,93530.56
2023-01-18T05:38:48.054Z,93532.22
2023-01-18T05:41:16.502Z,93533.81
2023-01-18T05:43:44.962Z,93539.66
2023-01-18T05:46:14.696Z,93538.66
2023-01-18T05:48:43.015Z,93538.31
2023-01-18T05:51:12.185Z,93539.91
2023-01-18T05:53:42.069Z,93548.34
2023-01-18T05:56:10.749Z,93547.19
2023-01-18T05:58:39.407Z,93554.81
2023-01-18T06:01:11.298Z,93552.81
2023-01-18T06:03:41.188Z,93557.03
2023-01-18T06:06:09.702Z,93571.69
2023-01-18T06:08:38.651Z,93572.34
2023-01-18T06:11:07.811Z,93568.72
2023-01-18T06:13:36.184Z,93579.78
2023-01-18T06:16:06.438Z,93580.41
2023-01-18T06:18:35.053Z,93583.00
2023-01-18T06:21:05.167Z,93596.22
2023-01-18T06:23:33.807Z,93598.03
2023-01-18T06:26:02.173Z,93606.66
2023-01-18T06:28:31.034Z,93608.66
2023-01-18T06:31:00.475Z,93613.88
2023-01-18T06:33:29.185Z,93617.31
2023-01-18T06:35:57.530Z,93623.69
2023-01-18T06:38:27.337Z,93634.97
2023-01-18T06:40:55.704Z,93638.38
2023-01-18T06:43:24.148Z,93637.38
2023-01-18T06:45:54.137Z,93632.97
2023-01-18T06:48:23.974Z,93646.63
2023-01-18T06:50:54.263Z,93637.97
2023-01-18T06:53:23.022Z,93640.41
2023-01-18T06:55:57.946Z,93643.63
2023-01-18T06:58:27.707Z,93646.88
2023-01-18T07:00:57.417Z,93647.50
2023-01-18T07:03:26.849Z,93652.91
2023-01-18T07:05:55.974Z,93657.31
2023-01-18T07:08:26.928Z,93661.56
2023-01-18T07:10:57.332Z,93661.56
2023-01-18T07:13:26.112Z,93675.41
2023-01-18T07:16:02.056Z,93679.63
2023-01-18T07:18:31.267Z,93677.84
2023-01-18T07:21:00.891Z,93680.44
2023-01-18T07:23:30.205Z,93693.50
2023-01-18T07:26:03.961Z,93684.88
2023-01-18T07:28:33.478Z,93686.63
2023-01-18T07:31:02.306Z,93691.84
2023-01-18T07:33:31.214Z,93691.84
2023-01-18T07:36:00.041Z,93695.31
2023-01-18T07:38:28.986Z,93695.72
2023-01-18T07:41:02.826Z,93704.38
2023-01-18T07:43:34.002Z,93700.75
2023-01-18T07:46:04.106Z,93714.81
2023-01-18T07:48:33.602Z,93717.59
2023-01-18T07:51:03.930Z,93722.47
2023-01-18T07:53:34.725Z,93730.31
2023-01-18T07:56:04.667Z,93724.06
2023-01-18T07:58:35.104Z,93733.72
2023-01-18T08:01:04.899Z,93732.91
2023-01-18T08:03:34.062Z,93744.16
2023-01-18T08:06:05.723Z,93736.13
2023-01-18T08:08:35.008Z,93743.59
2023-01-18T08:11:05.206Z,93742.59
2023-01-18T08:13:35.203Z,93752.03
2023-01-18T08:16:05.559Z,93752.66
2023-01-18T08:18:33.971Z,93757.09
2023-01-18T08:21:02.355Z,93763.28
2023-01-18T08:23:30.845Z,93773.72
2023-01-18T08:26:02.264Z,93771.13
2023-01-18T08:28:30.620Z,93777.78
2023-01-18T08:31:09.478Z,93772.81
2023-01-18T08:33:39.737Z,93782.44
2023-01-18T08:36:11.808Z,93779.31
2023-01-18T08:38:40.453Z,93784.75
2023-01-18T08:41:09.839Z,93791.84
2023-01-18T08:43:38.499Z,93790.13
2023-01-18T08:46:08.332Z,93797.41
2023-01-18T08:48:36.709Z,93801.28
2023-01-18T08:51:05.749Z,93803.31
2023-01-18T08:53:34.442Z,93806.19
2023-01-18T08:56:06.283Z,93811.47
2023-01-18T08:58:34.772Z,93814.81
2023-01-18T09:01:06.349Z,93824.50
2023-01-18T09:03:36.919Z,93821.31
2023-01-18T09:06:08.206Z,93823.00
2023-01-18T09:08:37.160Z,93826.03
2023-01-18T09:11:06.778Z,93830.25
2023-01-18T09:13:35.628Z,93829.47
2023-01-18T09:16:06.003Z,93820.44
2023-01-18T09:18:36.560Z,93829.53
2023-01-18T09:21:07.520Z,93841.22
2023-01-18T09:23:36.067Z,93839.47
2023-01-18T09:26:07.336Z,93842.34
2023-01-18T09:28:36.526Z,93857.66
2023-01-18T09:31:08.809Z,93858.91
2023-01-18T09:33:39.340Z,93857.06
2023-01-18T09:36:10.466Z,93855.47
2023-01-18T09:38:40.070Z,93859.69
2023-01-18T09:41:19.630Z,93870.97
2023-01-18T09:43:51.200Z,93875.38
2023-01-18T09:46:21.397Z,93878.19
2023-01-18T09:48:55.914Z,93879.38
2023-01-18T09:51:28.886Z,93877.75
2023-01-18T09:54:07.877Z,93877.38
2023-01-18T09:56:43.385Z,93891.34
2023-01-18T09:59:21.963Z,93884.16
2023-01-18T10:01:53.820Z,93891.25
2023-01-18T10:04:32.925Z,93888.50
2023-01-18T10:07:03.243Z,93900.06
2023-01-18T10:09:37.803Z,93899.72
2023-01-18T10:12:18.853Z,93904.63
2023-01-18T10:14:54.240Z,93905.44
2023-01-18T10:17:24.737Z,93903.81
2023-01-18T10:19:54.567Z,93908.25
2023-01-18T10:22:26.088Z,93904.19
2023-01-18T10:25:00.884Z,93909.44
2023-01-18T10:27:41.659Z,93915.06
2023-01-18T10:30:48.132Z,93918.66
2023-01-18T10:33:21.376Z,93914.06
2023-01-18T10:35:54.163Z,93912.84
2023-01-18T10:38:26.259Z,93919.34
2023-01-18T10:40:57.639Z,93918.78
2023-01-18T10:43:27.836Z,93916.78
2023-01-18T10:45:56.891Z,93927.75
2023-01-18T10:48:29.416Z,93930.03
2023-01-18T10:51:01.350Z,93939.97
2023-01-18T10:53:32.880Z,93940.00
2023-01-18T10:56:03.955Z,93936.59
2023-01-18T10:58:39.031Z,93933.59
2023-01-18T11:01:13.907Z,93934.03
2023-01-18T11:03:48.091Z,93933.25
2023-01-18T11:06:20.553Z,93938.28
2023-01-18T11:08:50.764Z,93941.94
2023-01-18T11:11:51.081Z,93947.63
2023-01-18T11:14:31.582Z,93944.03
2023-01-18T11:17:02.187Z,93954.75
2023-01-18T11:19:31.327Z,93952.81
2023-01-18T11:22:01.335Z,93956.47
2023-01-18T11:24:34.147Z,93953.69
2023-01-18T11:27:05.121Z,93958.53
2023-01-18T11:29:37.367Z,93957.53
2023-01-18T11:32:09.568Z,93958.56
2023-01-18T11:34:41.097Z,93952.72
2023-01-18T11:37:34.355Z,93959.78
2023-01-18T11:40:26.799Z,93959.78
2023-01-18T11:42:59.670Z,93965.25
2023-01-18T11:45:32.081Z,93973.53
2023-01-18T11:48:06.405Z,93974.34
2023-01-18T11:50:43.982Z,93975.13
2023-01-18T11:53:27.696Z,93980.81
2023-01-18T11:56:06.080Z,93982.00
2023-01-18T11:58:36.450Z,93983.63
2023-01-18T12:01:24.334Z,93987.66
2023-01-18T12:03:59.999Z,93989.66
2023-01-18T12:06:41.492Z,93987.84
2023-01-18T12:09:32.519Z,93993.69
2023-01-18T12:12:19.441Z,93996.91
2023-01-18T12:14:58.859Z,94003.56
2023-01-18T12:18:04.348Z,94004.97
2023-01-18T12:20:41.731Z,94012.25
2023-01-18T12:23:28.081Z,94017.91
2023-01-18T12:26:17.194Z,94016.44
2023-01-18T12:28:58.592Z,94021.88
2023-01-18T12:31:44.914Z,94031.16
2023-01-18T12:34:16.186Z,94031.56
2023-01-18T12:36:58.487Z,94038.81
2023-01-18T12:39:48.054Z,94035.97
2023-01-18T12:42:24.957Z,94045.22
2023-01-18T12:45:04.296Z,94052.28
2023-01-18T12:47:36.765Z,94060.97
2023-01-18T12:50:15.287Z,94062.38
2023-01-18T12:52:48.711Z,94072.06
2023-01-18T12:55:22.239Z,94075.06
2023-01-18T12:57:58.799Z,94075.66
2023-01-18T13:00:34.432Z,94073.38
2023-01-18T13:03:07.332Z,94076.75
2023-01-18T13:05:50.978Z,94080.34
2023-01-18T13:08:35.482Z,94084.97
2023-01-18T13:11:09.309Z,94086.16
2023-01-18T13:13:41.253Z,94089.59
2023-01-18T13:16:25.596Z,94089.16
2023-01-18T13:18:59.365Z,94100.22
2023-01-18T13:21:41.191Z,94096.00
2023-01-18T13:24:20.209Z,94102.81
2023-01-18T13:26:48.836Z,94109.00
2023-01-18T13:29:25.797Z,94116.63
2023-01-18T13:31:54.390Z,94123.06
2023-01-18T13:34:29.736Z,94130.72
2023-01-18T13:37:13.463Z,94137.31
2023-01-18T13:39:48.292Z,94131.91
2023-01-18T13:42:35.035Z,94143.41
2023-01-18T13:45:20.474Z,94154.88
2023-01-18T13:47:58.088Z,94150.44
2023-01-18T13:50:45.405Z,94155.66
2023-01-18T13:53:22.069Z,94159.50
2023-01-18T13:56:27.583Z,94166.91
2023-01-18T13:58:59.650Z,94172.16
2023-01-18T14:01:34.155Z,94177.22
2023-01-18T14:04:25.207Z,94179.47
2023-01-18T14:06:55.832Z,94186.31
2023-01-18T14:09:36.271Z,94188.50
2023-01-18T14:12:05.401Z,94198.00
2023-01-18T14:14:35.748Z,94196.75
2023-01-18T14:17:16.451Z,94208.84
2023-01-18T14:20:28.189Z,94219.72
2023-01-18T14:23:09.316Z,94221.69
2023-01-18T14:25:56.810Z,94234.81
2023-01-18T14:28:31.794Z,94233.91
2023-01-18T14:31:02.248Z,94251.34
2023-01-18T14:33:36.119Z,94255.53
2023-01-18T14:36:06.633Z,94245.16
2023-01-18T14:38:36.559Z,94259.34
2023-01-18T14:41:07.473Z,94263.50
2023-01-18T14:43:38.420Z,94257.38
2023-01-18T14:46:10.763Z,94263.16
2023-01-18T14:48:49.069Z,94276.16
2023-01-18T14:51:19.803Z,94278.31
2023-01-18T14:53:52.883Z,94291.25
2023-01-18T14:56:23.214Z,94303.69
2023-01-18T14:58:56.745Z,94303.31
2023-01-18T15:01:29.454Z,94309.56
2023-01-18T15:04:00.969Z,94315.16
2023-01-18T15:06:37.629Z,94316.97
2023-01-18T15:09:08.094Z,94321.56
2023-01-18T15:11:38.856Z,94329.59
2023-01-18T15:14:13.074Z,94330.31
2023-01-18T15:16:41.542Z,94339.69
2023-01-18T15:19:16.854Z,94342.38
2023-01-18T15:21:46.030Z,94349.13
2023-01-18T15:24:18.803Z,94352.38
2023-01-18T15:26:52.213Z,94355.00
2023-01-18T15:29:25.974Z,94359.44
2023-01-18T15:31:56.827Z,94368.59
2023-01-18T15:34:31.106Z,94369.59
2023-01-18T15:37:01.483Z,94379.59
2023-01-18T15:39:32.367Z,94380.47
2023-01-18T15:42:06.115Z,94377.91
2023-01-18T15:44:44.225Z,94391.88
2023-01-18T15:47:26.380Z,94392.38
2023-01-18T15:49:58.858Z,94402.09
2023-01-18T15:52:39.804Z,94408.34
2023-01-18T15:55:18.280Z,94412.28
2023-01-18T15:57:56.450Z,94413.28
2023-01-18T16:00:38.065Z,94418.69
2023-01-18T16:03:06.707Z,94431.38
2023-01-18T16:05:36.747Z,94426.00
2023-01-18T16:08:19.119Z,94437.09
2023-01-18T16:10:53.248Z,94441.34
2023-01-18T16:13:42.977Z,94446.22
2023-01-18T16:16:20.613Z,94445.25
2023-01-18T16:18:53.013Z,94460.94
2023-01-18T16:21:31.104Z,94463.53
2023-01-18T16:24:00.421Z,94475.16
2023-01-18T16:26:31.725Z,94477.78
2023-01-18T16:29:11.386Z,94483.16
2023-01-18T16:31:43.047Z,94495.59
2023-01-18T16:34:24.453Z,94499.06
2023-01-18T16:36:55.181Z,94498.91
2023-01-18T16:39:24.671Z,94512.41
2023-01-18T16:41:57.716Z,94506.53
2023-01-18T16:44:27.960Z,94517.00
2023-01-18T16:46:56.889Z,94524.19
2023-01-18T16:49:25.874Z,94527.16
2023-01-18T16:51:56.204Z,94535.81
2023-01-18T16:54:24.527Z,94535.97
2023-01-18T16:56:53.270Z,94542.53
2023-01-18T16:59:22.902Z,94552.00
2023-01-18T17:01:51.928Z,94557.03
2023-01-18T17:04:20.375Z,94565.38
2023-01-18T17:06:48.941Z,94559.97
2023-01-18T17:09:25.040Z,94575.34
2023-01-18T17:11:54.398Z,94577.31
2023-01-18T17:14:23.630Z,94587.09
2023-01-18T17:16:53.108Z,94584.66
2023-01-18T17:19:23.441Z,94591.00
2023-01-18T17:21:52.645Z,94597.25
2023-01-18T17:24:23.991Z,94603.28
2023-01-18T17:26:52.760Z,94609.00
2023-01-18T17:29:22.617Z,94618.47
2023-01-18T17:31:53.104Z,94618.16
2023-01-18T17:34:27.923Z,94625.69
2023-01-18T17:36:58.986Z,94628.94
2023-01-18T17:39:42.605Z,94640.72
2023-01-18T17:42:22.862Z,94645.59
2023-01-18T17:45:03.671Z,94641.88
2023-01-18T17:47:33.153Z,94646.09
2023-01-18T17:50:03.506Z,94651.81
2023-01-18T17:52:31.863Z,94656.88
2023-01-18T17:55:01.574Z,94658.66
2023-01-18T17:57:29.947Z,94663.06
2023-01-18T17:59:58.386Z,94665.84
2023-01-18T18:02:27.311Z,94666.19
2023-01-18T18:04:56.039Z,94669.28
2023-01-18T18:07:34.620Z,94666.00
2023-01-18T18:10:04.761Z,94668.81
2023-01-18T18:12:34.466Z,94678.75
2023-01-18T18:15:03.145Z,94680.53
2023-01-18T18:17:32.873Z,94685.44
2023-01-18T18:20:01.781Z,94688.22
2023-01-18T18:22:31.693Z,94695.25
2023-01-18T18:25:00.026Z,94693.13
2023-01-18T18:27:44.539Z,94697.84
2023-01-18T18:30:14.118Z,94690.97
2023-01-18T18:32:42.836Z,94697.00
2023-01-18T18:35:24.225Z,94704.69
2023-01-18T18:37:55.450Z,94701.44
2023-01-18T18:40:24.455Z,94702.13
2023-01-18T18:43:02.006Z,94719.41
2023-01-18T18:45:31.893Z,94724.63
2023-01-18T18:48:00.680Z,94734.59
2023-01-18T18:50:29.731Z,94735.56
2023-01-18T18:52:58.744Z,94749.28
2023-01-18T18:55:27.440Z,94749.13
2023-01-18T18:57:57.139Z,94754.03
2023-01-18T19:00:27.424Z,94751.75
2023-01-18T19:02:59.455Z,94750.91
2023-01-18T19:05:28.342Z,94756.97
2023-01-18T19:07:56.952Z,94753.38
2023-01-18T19:10:27.557Z,94746.38
2023-01-18T19:12:58.452Z,94740.16
2023-01-18T19:15:27.199Z,94750.59
2023-01-18T19:17:55.569Z,94754.22
2023-01-18T19:20:23.875Z,94769.69
2023-01-18T19:22:52.531Z,94773.97
2023-01-18T19:25:20.918Z,94773.97
2023-01-18T19:27:49.256Z,94779.19
2023-01-18T19:30:20.071Z,94780.00
2023-01-18T19:32:50.840Z,94784.06
2023-01-18T19:35:20.375Z,94785.06
2023-01-18T19:37:49.660Z,94792.72
2023-01-18T19:40:18.499Z,94801.56
2023-01-18T19:42:54.892Z,94801.25
2023-01-18T19:45:28.275Z,94804.66
2023-01-18T19:47:58.323Z,94808.09
2023-01-18T19:50:28.162Z,94814.97
2023-01-18T19:52:57.070Z,94823.75
2023-01-18T19:55:25.593Z,94830.94
2023-01-18T19:57:57.013Z,94843.19
2023-01-18T20:00:26.787Z,94839.75
2023-01-18T20:03:02.138Z,94850.03
2023-01-18T20:05:31.108Z,94848.94
2023-01-18T20:07:59.485Z,94849.59
2023-01-18T20:10:28.243Z,94847.63
2023-01-18T20:12:56.596Z,94854.47
2023-01-18T20:15:26.326Z,94868.38
2023-01-18T20:17:54.856Z,94873.44
2023-01-18T20:20:31.739Z,94867.69
2023-01-18T20:23:03.772Z,94872.44
2023-01-18T20:25:33.328Z,94865.06
2023-01-18T20:28:02.027Z,94871.75
2023-01-18T20:30:32.222Z,94871.94
2023-01-18T20:33:00.882Z,94876.78
2023-01-18T20:35:29.586Z,94880.19
2023-01-18T20:37:59.086Z,94878.84
2023-01-18T20:40:27.480Z,94882.06
2023-01-18T20:42:55.835Z,94885.81
2023-01-18T20:45:24.212Z,94891.31
2023-01-18T20:47:53.918Z,94899.50
2023-01-18T20:50:24.193Z,94905.53
2023-01-18T20:52:53.607Z,94913.22
2023-01-18T20:55:23.475Z,94913.50
2023-01-18T20:57:51.955Z,94916.13
2023-01-18T21:00:21.205Z,94924.78
2023-01-18T21:02:50.334Z,94935.06
2023-01-18T21:05:20.185Z,94932.44
2023-01-18T21:07:48.586Z,94939.31
2023-01-18T21:10:17.669Z,94933.28
2023-01-18T21:12:48.111Z,94940.59
2023-01-18T21:15:17.419Z,94942.41
2023-01-18T21:17:45.888Z,94938.28
2023-01-18T21:20:14.732Z,94944.50
2023-01-18T21:22:44.521Z,94941.38
2023-01-18T21:25:12.896Z,94935.44
2023-01-18T21:27:43.624Z,94940.22
2023-01-18T21:30:13.282Z,94946.56
2023-01-18T21:32:41.878Z,94948.34
2023-01-18T21:35:10.889Z,94953.72
2023-01-18T21:37:39.836Z,94955.38
2023-01-18T21:40:11.146Z,94955.66
2023-01-18T21:42:57.148Z,94965.94
2023-01-18T21:45:43.201Z,94962.22
2023-01-18T21:48:11.667Z,94962.72
2023-01-18T21:50:58.354Z,94969.59
2023-01-18T21:53:44.683Z,94966.16
2023-01-18T21:56:14.450Z,94961.09
2023-01-18T21:58:54.908Z,94959.78
2023-01-18T22:01:26.012Z,94965.44
2023-01-18T22:04:13.296Z,94970.13
2023-01-18T22:06:42.210Z,94978.69
2023-01-18T22:09:10.629Z,94978.69
2023-01-18T22:11:40.421Z,94986.53
2023-01-18T22:14:10.650Z,94991.75
2023-01-18T22:16:39.933Z,94988.13
2023-01-18T22:19:08.527Z,94991.53
2023-01-18T22:21:36.883Z,94996.47
2023-01-18T22:24:05.900Z,94995.63
2023-01-18T22:26:36.383Z,95000.41
2023-01-18T22:29:06.550Z,95001.06
2023-01-18T22:31:35.507Z,95001.06
2023-01-18T22:34:05.459Z,95007.72
2023-01-18T22:36:34.327Z,95005.97
2023-01-18T22:39:02.718Z,95010.53
2023-01-18T22:41:31.133Z,95010.81
2023-01-18T22:43:59.550Z,95008.88
2023-01-18T22:46:29.469Z,95011.88
2023-01-18T22:48:59.439Z,95004.03
2023-01-18T22:51:27.847Z,95006.94
2023-01-18T22:53:56.727Z,95009.72
2023-01-18T22:56:26.461Z,95013.00
2023-01-18T22:58:54.798Z,95019.03
2023-01-18T23:01:26.039Z,95024.91
2023-01-18T23:03:57.737Z,95018.06
2023-01-18T23:06:26.739Z,95026.03
2023-01-18T23:08:55.195Z,95032.75
2023-01-18T23:11:30.739Z,95029.31
2023-01-18T23:14:17.167Z,95032.59
2023-01-18T23:17:00.267Z,95034.59
2023-01-18T23:19:31.028Z,95035.34
2023-01-18T23:21:59.558Z,95043.28
2023-01-18T23:24:28.171Z,95042.81
2023-01-18T23:26:56.676Z,95042.53
2023-01-18T23:29:25.283Z,95050.03
2023-01-18T23:31:53.713Z,95053.47
2023-01-18T23:34:22.135Z,95058.69
2023-01-18T23:36:52.148Z,95063.41
2023-01-18T23:39:38.083Z,95058.63
2023-01-18T23:42:23.932Z,95065.25
2023-01-18T23:45:09.969Z,95075.81
2023-01-18T23:47:56.556Z,95070.78
2023-01-18T23:50:43.383Z,95076.06
2023-01-18T23:53:31.996Z,95085.88
2023-01-18T23:56:01.065Z,95078.34
2023-01-18T23:58:29.431Z,95084.50
